sensor_id;sensor_type;location;lat;lon;timestamp;P1;durP1;ratioP1;P2;durP2;ratioP2
735;SDS011;352;48.626;9.238;2022-09-01T00:01:43;7.70;;;7.10;;
735;SDS011;352;48.626;9.238;2022-09-01T00:04:13;6.60;;;6.10;;
735;SDS011;352;48.626;9.238;2022-09-01T00:06:43;6.80;;;6.27;;
735;SDS011;352;48.626;9.238;2022-09-01T00:09:10;7.57;;;6.87;;
735;SDS011;352;48.626;9.238;2022-09-01T00:11:41;7.30;;;6.70;;
735;SDS011;352;48.626;9.238;2022-09-01T00:14:10;7.23;;;6.60;;
735;SDS011;352;48.626;9.238;2022-09-01T00:16:38;7.60;;;6.90;;
735;SDS011;352;48.626;9.238;2022-09-01T00:19:05;7.70;;;7.00;;
735;SDS011;352;48.626;9.238;2022-09-01T00:21:32;7.40;;;6.80;;
735;SDS011;352;48.626;9.238;2022-09-01T00:24:02;8.20;;;6.37;;
735;SDS011;352;48.626;9.238;2022-09-01T00:26:29;8.03;;;7.30;;
735;SDS011;352;48.626;9.238;2022-09-01T00:28:56;7.23;;;6.73;;
735;SDS011;352;48.626;9.238;2022-09-01T00:31:25;7.80;;;7.20;;
735;SDS011;352;48.626;9.238;2022-09-01T00:33:52;9.00;;;7.80;;
735;SDS011;352;48.626;9.238;2022-09-01T00:36:20;8.87;;;8.00;;
735;SDS011;352;48.626;9.238;2022-09-01T00:38:47;8.30;;;7.67;;
735;SDS011;352;48.626;9.238;2022-09-01T00:41:15;8.50;;;7.70;;
735;SDS011;352;48.626;9.238;2022-09-01T00:43:45;9.70;;;8.80;;
735;SDS011;352;48.626;9.238;2022-09-01T00:46:14;9.27;;;8.37;;
735;SDS011;352;48.626;9.238;2022-09-01T00:48:43;8.70;;;7.93;;
735;SDS011;352;48.626;9.238;2022-09-01T00:51:12;9.27;;;8.37;;
735;SDS011;352;48.626;9.238;2022-09-01T00:53:40;9.50;;;8.70;;
735;SDS011;352;48.626;9.238;2022-09-01T00:56:08;8.83;;;8.03;;
735;SDS011;352;48.626;9.238;2022-09-01T00:58:35;8.60;;;7.70;;
735;SDS011;352;48.626;9.238;2022-09-01T01:01:04;7.87;;;7.17;;
735;SDS011;352;48.626;9.238;2022-09-01T01:03:31;8.23;;;7.43;;
735;SDS011;352;48.626;9.238;2022-09-01T01:06:02;8.00;;;7.30;;
735;SDS011;352;48.626;9.238;2022-09-01T01:08:34;8.27;;;7.33;;
735;SDS011;352;48.626;9.238;2022-09-01T01:11:07;8.13;;;7.23;;
735;SDS011;352;48.626;9.238;2022-09-01T01:13:49;9.10;;;8.30;;
735;SDS011;352;48.626;9.238;2022-09-01T01:16:18;8.27;;;7.57;;
735;SDS011;352;48.626;9.238;2022-09-01T01:18:45;8.20;;;7.30;;
735;SDS011;352;48.626;9.238;2022-09-01T01:21:16;8.50;;;7.47;;
735;SDS011;352;48.626;9.238;2022-09-01T01:24:04;10.60;;;9.27;;
735;SDS011;352;48.626;9.238;2022-09-01T01:26:39;9.03;;;8.17;;
735;SDS011;352;48.626;9.238;2022-09-01T01:29:06;7.37;;;6.77;;
735;SDS011;352;48.626;9.238;2022-09-01T01:31:34;8.60;;;7.80;;
735;SDS011;352;48.626;9.238;2022-09-01T01:34:01;7.13;;;6.60;;
735;SDS011;352;48.626;9.238;2022-09-01T01:36:34;7.17;;;6.57;;
735;SDS011;352;48.626;9.238;2022-09-01T01:39:06;8.70;;;7.90;;
735;SDS011;352;48.626;9.238;2022-09-01T01:41:36;7.47;;;6.83;;
735;SDS011;352;48.626;9.238;2022-09-01T01:44:07;8.63;;;7.70;;
735;SDS011;352;48.626;9.238;2022-09-01T01:46:38;6.93;;;6.33;;
735;SDS011;352;48.626;9.238;2022-09-01T01:49:07;6.50;;;6.00;;
735;SDS011;352;48.626;9.238;2022-09-01T01:51:33;7.70;;;7.10;;
735;SDS011;352;48.626;9.238;2022-09-01T01:54:01;6.60;;;6.10;;
735;SDS011;352;48.626;9.238;2022-09-01T01:56:29;6.90;;;6.30;;
735;SDS011;352;48.626;9.238;2022-09-01T01:58:57;6.90;;;6.30;;
735;SDS011;352;48.626;9.238;2022-09-01T02:01:27;6.60;;;6.10;;
735;SDS011;352;48.626;9.238;2022-09-01T02:03:56;6.30;;;5.70;;
735;SDS011;352;48.626;9.238;2022-09-01T02:06:24;7.47;;;6.87;;
735;SDS011;352;48.626;9.238;2022-09-01T02:08:53;7.40;;;6.80;;
735;SDS011;352;48.626;9.238;2022-09-01T02:11:21;7.13;;;6.60;;
735;SDS011;352;48.626;9.238;2022-09-01T02:13:50;9.03;;;6.70;;
735;SDS011;352;48.626;9.238;2022-09-01T02:16:21;8.00;;;7.40;;
735;SDS011;352;48.626;9.238;2022-09-01T02:18:50;7.80;;;7.20;;
735;SDS011;352;48.626;9.238;2022-09-01T02:21:18;7.87;;;7.17;;
735;SDS011;352;48.626;9.238;2022-09-01T02:23:50;8.33;;;7.50;;
735;SDS011;352;48.626;9.238;2022-09-01T02:26:23;8.00;;;7.30;;
735;SDS011;352;48.626;9.238;2022-09-01T02:28:51;7.60;;;6.80;;
735;SDS011;352;48.626;9.238;2022-09-01T02:31:18;7.47;;;6.87;;
735;SDS011;352;48.626;9.238;2022-09-01T02:33:46;9.57;;;8.73;;
735;SDS011;352;48.626;9.238;2022-09-01T02:36:15;13.20;;;9.63;;
735;SDS011;352;48.626;9.238;2022-09-01T02:38:43;9.17;;;8.30;;
735;SDS011;352;48.626;9.238;2022-09-01T02:41:13;8.90;;;8.10;;
735;SDS011;352;48.626;9.238;2022-09-01T02:43:44;9.83;;;8.30;;
735;SDS011;352;48.626;9.238;2022-09-01T02:46:11;7.83;;;7.20;;
735;SDS011;352;48.626;9.238;2022-09-01T02:48:40;8.30;;;7.57;;
735;SDS011;352;48.626;9.238;2022-09-01T02:51:10;8.00;;;7.40;;
735;SDS011;352;48.626;9.238;2022-09-01T02:53:43;7.63;;;6.97;;
735;SDS011;352;48.626;9.238;2022-09-01T02:56:13;8.30;;;7.47;;
735;SDS011;352;48.626;9.238;2022-09-01T02:58:43;7.93;;;7.23;;
735;SDS011;352;48.626;9.238;2022-09-01T03:01:13;7.67;;;7.00;;
735;SDS011;352;48.626;9.238;2022-09-01T03:03:44;7.30;;;6.60;;
735;SDS011;352;48.626;9.238;2022-09-01T03:06:11;8.23;;;7.50;;
735;SDS011;352;48.626;9.238;2022-09-01T03:08:38;7.03;;;6.43;;
735;SDS011;352;48.626;9.238;2022-09-01T03:11:06;7.63;;;6.93;;
735;SDS011;352;48.626;9.238;2022-09-01T03:13:35;8.43;;;7.73;;
735;SDS011;352;48.626;9.238;2022-09-01T03:16:02;8.50;;;7.60;;
735;SDS011;352;48.626;9.238;2022-09-01T03:18:29;8.60;;;7.80;;
735;SDS011;352;48.626;9.238;2022-09-01T03:20:57;9.00;;;8.20;;
735;SDS011;352;48.626;9.238;2022-09-01T03:23:23;8.83;;;8.13;;
735;SDS011;352;48.626;9.238;2022-09-01T03:25:52;8.27;;;7.57;;
735;SDS011;352;48.626;9.238;2022-09-01T03:28:20;8.10;;;7.30;;
735;SDS011;352;48.626;9.238;2022-09-01T03:30:47;7.77;;;7.03;;
735;SDS011;352;48.626;9.238;2022-09-01T03:33:16;8.33;;;7.53;;
735;SDS011;352;48.626;9.238;2022-09-01T03:35:44;7.90;;;7.20;;
735;SDS011;352;48.626;9.238;2022-09-01T03:38:12;9.90;;;7.50;;
735;SDS011;352;48.626;9.238;2022-09-01T03:40:47;8.80;;;8.00;;
735;SDS011;352;48.626;9.238;2022-09-01T03:43:15;8.90;;;8.10;;
735;SDS011;352;48.626;9.238;2022-09-01T03:45:44;8.97;;;7.00;;
735;SDS011;352;48.626;9.238;2022-09-01T03:48:11;7.73;;;7.03;;
735;SDS011;352;48.626;9.238;2022-09-01T03:50:41;7.07;;;6.37;;
735;SDS011;352;48.626;9.238;2022-09-01T03:53:12;7.43;;;6.80;;
735;SDS011;352;48.626;9.238;2022-09-01T03:55:42;9.20;;;8.40;;
735;SDS011;352;48.626;9.238;2022-09-01T03:58:10;8.50;;;7.80;;
735;SDS011;352;48.626;9.238;2022-09-01T04:00:39;8.33;;;7.63;;
735;SDS011;352;48.626;9.238;2022-09-01T04:03:10;8.50;;;7.57;;
735;SDS011;352;48.626;9.238;2022-09-01T04:05:38;7.70;;;7.00;;
735;SDS011;352;48.626;9.238;2022-09-01T04:08:08;9.07;;;8.27;;
735;SDS011;352;48.626;9.238;2022-09-01T04:10:42;8.97;;;8.17;;
735;SDS011;352;48.626;9.238;2022-09-01T04:13:14;8.63;;;7.83;;
735;SDS011;352;48.626;9.238;2022-09-01T04:15:42;9.60;;;8.70;;
735;SDS011;352;48.626;9.238;2022-09-01T04:18:10;11.23;;;10.13;;
735;SDS011;352;48.626;9.238;2022-09-01T04:20:44;11.20;;;10.13;;
735;SDS011;352;48.626;9.238;2022-09-01T04:23:16;10.70;;;9.70;;
735;SDS011;352;48.626;9.238;2022-09-01T04:25:51;10.90;;;9.90;;
735;SDS011;352;48.626;9.238;2022-09-01T04:28:22;10.70;;;9.60;;
735;SDS011;352;48.626;9.238;2022-09-01T04:30:51;11.23;;;9.30;;
735;SDS011;352;48.626;9.238;2022-09-01T04:33:22;9.50;;;8.53;;
735;SDS011;352;48.626;9.238;2022-09-01T04:35:50;8.20;;;7.50;;
735;SDS011;352;48.626;9.238;2022-09-01T04:38:20;8.03;;;7.37;;
735;SDS011;352;48.626;9.238;2022-09-01T04:40:48;8.10;;;7.50;;
735;SDS011;352;48.626;9.238;2022-09-01T04:43:15;8.10;;;7.30;;
735;SDS011;352;48.626;9.238;2022-09-01T04:45:44;8.27;;;7.57;;
735;SDS011;352;48.626;9.238;2022-09-01T04:48:13;7.73;;;7.03;;
735;SDS011;352;48.626;9.238;2022-09-01T04:50:41;8.47;;;7.30;;
735;SDS011;352;48.626;9.238;2022-09-01T04:53:09;7.93;;;7.23;;
735;SDS011;352;48.626;9.238;2022-09-01T04:55:37;10.60;;;9.70;;
735;SDS011;352;48.626;9.238;2022-09-01T04:58:07;13.20;;;11.80;;
735;SDS011;352;48.626;9.238;2022-09-01T05:00:38;15.53;;;13.47;;
735;SDS011;352;48.626;9.238;2022-09-01T05:03:05;12.80;;;11.50;;
735;SDS011;352;48.626;9.238;2022-09-01T05:05:35;14.97;;;10.10;;
735;SDS011;352;48.626;9.238;2022-09-01T05:08:08;12.43;;;9.77;;
735;SDS011;352;48.626;9.238;2022-09-01T05:10:39;9.10;;;8.20;;
735;SDS011;352;48.626;9.238;2022-09-01T05:13:09;12.70;;;8.10;;
735;SDS011;352;48.626;9.238;2022-09-01T05:15:37;8.37;;;7.67;;
735;SDS011;352;48.626;9.238;2022-09-01T05:18:11;8.53;;;7.80;;
735;SDS011;352;48.626;9.238;2022-09-01T05:20:38;8.20;;;7.43;;
735;SDS011;352;48.626;9.238;2022-09-01T05:23:08;9.27;;;8.47;;
735;SDS011;352;48.626;9.238;2022-09-01T05:25:38;8.83;;;7.90;;
735;SDS011;352;48.626;9.238;2022-09-01T05:28:08;9.40;;;7.80;;
735;SDS011;352;48.626;9.238;2022-09-01T05:30:36;8.10;;;7.50;;
735;SDS011;352;48.626;9.238;2022-09-01T05:33:04;8.63;;;7.77;;
735;SDS011;352;48.626;9.238;2022-09-01T05:35:35;7.50;;;6.90;;
735;SDS011;352;48.626;9.238;2022-09-01T05:38:04;7.67;;;7.00;;
735;SDS011;352;48.626;9.238;2022-09-01T05:40:38;7.90;;;7.10;;
735;SDS011;352;48.626;9.238;2022-09-01T05:43:06;8.20;;;7.50;;
735;SDS011;352;48.626;9.238;2022-09-01T05:45:36;8.23;;;7.53;;
735;SDS011;352;48.626;9.238;2022-09-01T05:48:04;8.47;;;7.77;;
735;SDS011;352;48.626;9.238;2022-09-01T05:50:33;8.93;;;8.10;;
735;SDS011;352;48.626;9.238;2022-09-01T05:53:00;7.67;;;7.07;;
735;SDS011;352;48.626;9.238;2022-09-01T05:55:35;8.80;;;7.33;;
735;SDS011;352;48.626;9.238;2022-09-01T05:58:04;6.80;;;6.30;;
735;SDS011;352;48.626;9.238;2022-09-01T06:00:31;8.13;;;7.43;;
735;SDS011;352;48.626;9.238;2022-09-01T06:02:58;8.13;;;7.43;;
735;SDS011;352;48.626;9.238;2022-09-01T06:05:28;8.43;;;7.70;;
735;SDS011;352;48.626;9.238;2022-09-01T06:07:56;8.10;;;7.30;;
735;SDS011;352;48.626;9.238;2022-09-01T06:10:22;8.10;;;7.40;;
735;SDS011;352;48.626;9.238;2022-09-01T06:12:49;9.40;;;8.60;;
735;SDS011;352;48.626;9.238;2022-09-01T06:15:18;8.80;;;8.00;;
735;SDS011;352;48.626;9.238;2022-09-01T06:17:46;9.43;;;8.63;;
735;SDS011;352;48.626;9.238;2022-09-01T06:20:13;8.60;;;7.90;;
735;SDS011;352;48.626;9.238;2022-09-01T06:22:42;8.27;;;7.47;;
735;SDS011;352;48.626;9.238;2022-09-01T06:25:09;8.40;;;7.67;;
735;SDS011;352;48.626;9.238;2022-09-01T06:27:36;7.63;;;6.93;;
735;SDS011;352;48.626;9.238;2022-09-01T06:30:05;7.80;;;6.80;;
735;SDS011;352;48.626;9.238;2022-09-01T06:32:40;8.07;;;7.37;;
735;SDS011;352;48.626;9.238;2022-09-01T06:35:08;8.47;;;7.63;;
735;SDS011;352;48.626;9.238;2022-09-01T06:37:35;8.37;;;7.57;;
735;SDS011;352;48.626;9.238;2022-09-01T06:40:02;9.80;;;8.93;;
735;SDS011;352;48.626;9.238;2022-09-01T06:42:30;8.17;;;7.37;;
735;SDS011;352;48.626;9.238;2022-09-01T06:44:59;8.20;;;7.57;;
735;SDS011;352;48.626;9.238;2022-09-01T06:47:26;7.80;;;7.00;;
735;SDS011;352;48.626;9.238;2022-09-01T06:49:54;8.50;;;7.80;;
735;SDS011;352;48.626;9.238;2022-09-01T06:52:22;8.83;;;8.03;;
735;SDS011;352;48.626;9.238;2022-09-01T06:54:49;9.63;;;8.80;;
735;SDS011;352;48.626;9.238;2022-09-01T06:57:18;8.90;;;8.10;;
735;SDS011;352;48.626;9.238;2022-09-01T06:59:46;8.73;;;7.90;;
735;SDS011;352;48.626;9.238;2022-09-01T07:02:14;10.07;;;9.20;;
735;SDS011;352;48.626;9.238;2022-09-01T07:04:43;8.97;;;8.17;;
735;SDS011;352;48.626;9.238;2022-09-01T07:07:12;9.57;;;8.67;;
735;SDS011;352;48.626;9.238;2022-09-01T07:09:38;9.40;;;8.47;;
735;SDS011;352;48.626;9.238;2022-09-01T07:12:06;9.50;;;8.50;;
735;SDS011;352;48.626;9.238;2022-09-01T07:14:34;9.47;;;8.63;;
735;SDS011;352;48.626;9.238;2022-09-01T07:17:01;10.17;;;8.77;;
735;SDS011;352;48.626;9.238;2022-09-01T07:19:31;10.47;;;9.47;;
735;SDS011;352;48.626;9.238;2022-09-01T07:21:59;10.30;;;9.40;;
735;SDS011;352;48.626;9.238;2022-09-01T07:24:27;10.90;;;9.90;;
735;SDS011;352;48.626;9.238;2022-09-01T07:26:55;10.10;;;9.20;;
735;SDS011;352;48.626;9.238;2022-09-01T07:29:21;11.53;;;10.33;;
735;SDS011;352;48.626;9.238;2022-09-01T07:31:50;12.27;;;11.23;;
735;SDS011;352;48.626;9.238;2022-09-01T07:34:19;12.33;;;11.23;;
735;SDS011;352;48.626;9.238;2022-09-01T07:36:46;12.43;;;10.80;;
735;SDS011;352;48.626;9.238;2022-09-01T07:39:13;11.07;;;10.07;;
735;SDS011;352;48.626;9.238;2022-09-01T07:41:41;12.80;;;11.60;;
735;SDS011;352;48.626;9.238;2022-09-01T07:44:08;12.37;;;11.20;;
735;SDS011;352;48.626;9.238;2022-09-01T07:46:39;14.17;;;11.37;;
735;SDS011;352;48.626;9.238;2022-09-01T07:49:06;12.27;;;11.10;;
735;SDS011;352;48.626;9.238;2022-09-01T07:51:33;12.53;;;11.33;;
735;SDS011;352;48.626;9.238;2022-09-01T07:54:00;12.87;;;11.57;;
735;SDS011;352;48.626;9.238;2022-09-01T07:56:28;13.30;;;11.93;;
735;SDS011;352;48.626;9.238;2022-09-01T07:58:56;12.03;;;11.03;;
735;SDS011;352;48.626;9.238;2022-09-01T08:01:25;12.07;;;11.00;;
735;SDS011;352;48.626;9.238;2022-09-01T08:03:53;12.10;;;11.10;;
735;SDS011;352;48.626;9.238;2022-09-01T08:06:21;11.43;;;10.20;;
735;SDS011;352;48.626;9.238;2022-09-01T08:08:50;12.03;;;10.87;;
735;SDS011;352;48.626;9.238;2022-09-01T08:11:19;11.33;;;10.23;;
735;SDS011;352;48.626;9.238;2022-09-01T08:13:49;12.73;;;10.00;;
735;SDS011;352;48.626;9.238;2022-09-01T08:16:18;11.17;;;10.17;;
735;SDS011;352;48.626;9.238;2022-09-01T08:18:45;10.73;;;9.83;;
735;SDS011;352;48.626;9.238;2022-09-01T08:21:13;10.13;;;9.23;;
735;SDS011;352;48.626;9.238;2022-09-01T08:23:40;9.30;;;8.50;;
735;SDS011;352;48.626;9.238;2022-09-01T08:26:08;9.80;;;8.90;;
735;SDS011;352;48.626;9.238;2022-09-01T08:28:37;9.17;;;8.00;;
735;SDS011;352;48.626;9.238;2022-09-01T08:31:05;8.20;;;7.60;;
735;SDS011;352;48.626;9.238;2022-09-01T08:33:34;7.67;;;6.97;;
735;SDS011;352;48.626;9.238;2022-09-01T08:36:01;7.97;;;7.27;;
735;SDS011;352;48.626;9.238;2022-09-01T08:38:28;8.70;;;8.00;;
735;SDS011;352;48.626;9.238;2022-09-01T08:40:55;9.10;;;8.20;;
735;SDS011;352;48.626;9.238;2022-09-01T08:43:26;7.40;;;6.80;;
735;SDS011;352;48.626;9.238;2022-09-01T08:46:11;9.33;;;8.43;;
735;SDS011;352;48.626;9.238;2022-09-01T08:48:43;8.57;;;7.80;;
735;SDS011;352;48.626;9.238;2022-09-01T08:51:14;8.60;;;7.80;;
735;SDS011;352;48.626;9.238;2022-09-01T08:53:48;7.87;;;7.27;;
735;SDS011;352;48.626;9.238;2022-09-01T08:56:22;7.67;;;7.07;;
735;SDS011;352;48.626;9.238;2022-09-01T08:58:49;7.77;;;7.07;;
735;SDS011;352;48.626;9.238;2022-09-01T09:01:17;7.40;;;6.70;;
735;SDS011;352;48.626;9.238;2022-09-01T09:03:58;6.40;;;5.90;;
735;SDS011;352;48.626;9.238;2022-09-01T09:06:40;5.90;;;5.50;;
735;SDS011;352;48.626;9.238;2022-09-01T09:09:13;5.53;;;4.80;;
735;SDS011;352;48.626;9.238;2022-09-01T09:14:53;5.13;;;4.73;;
735;SDS011;352;48.626;9.238;2022-09-01T09:17:31;6.23;;;5.50;;
735;SDS011;352;48.626;9.238;2022-09-01T09:20:04;6.50;;;5.90;;
735;SDS011;352;48.626;9.238;2022-09-01T09:22:31;6.47;;;5.97;;
735;SDS011;352;48.626;9.238;2022-09-01T09:25:01;6.60;;;6.10;;
735;SDS011;352;48.626;9.238;2022-09-01T09:27:32;5.60;;;5.17;;
735;SDS011;352;48.626;9.238;2022-09-01T09:30:02;5.20;;;4.80;;
735;SDS011;352;48.626;9.238;2022-09-01T09:35:20;6.03;;;5.53;;
735;SDS011;352;48.626;9.238;2022-09-01T09:37:52;5.67;;;5.17;;
735;SDS011;352;48.626;9.238;2022-09-01T09:40:19;6.60;;;6.10;;
735;SDS011;352;48.626;9.238;2022-09-01T09:43:03;5.23;;;4.83;;
735;SDS011;352;48.626;9.238;2022-09-01T09:45:33;5.20;;;4.90;;
735;SDS011;352;48.626;9.238;2022-09-01T09:48:06;5.30;;;4.90;;
735;SDS011;352;48.626;9.238;2022-09-01T09:50:36;4.60;;;4.30;;
735;SDS011;352;48.626;9.238;2022-09-01T09:53:12;5.27;;;4.83;;
735;SDS011;352;48.626;9.238;2022-09-01T09:58:28;5.30;;;4.90;;
735;SDS011;352;48.626;9.238;2022-09-01T10:01:02;5.13;;;4.73;;
735;SDS011;352;48.626;9.238;2022-09-01T10:03:35;4.80;;;4.40;;
735;SDS011;352;48.626;9.238;2022-09-01T10:06:09;5.23;;;4.83;;
735;SDS011;352;48.626;9.238;2022-09-01T10:08:54;5.87;;;5.47;;
735;SDS011;352;48.626;9.238;2022-09-01T10:11:25;5.43;;;5.03;;
735;SDS011;352;48.626;9.238;2022-09-01T10:13:56;5.90;;;5.50;;
735;SDS011;352;48.626;9.238;2022-09-01T10:16:24;5.50;;;5.10;;
735;SDS011;352;48.626;9.238;2022-09-01T10:18:55;5.60;;;5.20;;
735;SDS011;352;48.626;9.238;2022-09-01T10:21:31;7.30;;;5.03;;
735;SDS011;352;48.626;9.238;2022-09-01T10:24:02;4.87;;;4.47;;
735;SDS011;352;48.626;9.238;2022-09-01T10:26:44;4.97;;;4.57;;
735;SDS011;352;48.626;9.238;2022-09-01T10:29:14;5.97;;;5.37;;
735;SDS011;352;48.626;9.238;2022-09-01T10:31:46;12.57;;;11.33;;
735;SDS011;352;48.626;9.238;2022-09-01T10:34:13;6.03;;;5.60;;
735;SDS011;352;48.626;9.238;2022-09-01T10:36:44;23.53;;;19.23;;
735;SDS011;352;48.626;9.238;2022-09-01T10:39:14;4.40;;;4.10;;
735;SDS011;352;48.626;9.238;2022-09-01T10:41:43;4.50;;;4.20;;
735;SDS011;352;48.626;9.238;2022-09-01T10:44:17;4.87;;;4.47;;
735;SDS011;352;48.626;9.238;2022-09-01T10:46:46;4.63;;;4.30;;
735;SDS011;352;48.626;9.238;2022-09-01T10:49:18;4.67;;;4.33;;
735;SDS011;352;48.626;9.238;2022-09-01T10:55:19;4.67;;;4.37;;
735;SDS011;352;48.626;9.238;2022-09-01T10:57:50;4.83;;;4.53;;
735;SDS011;352;48.626;9.238;2022-09-01T11:00:43;5.20;;;4.13;;
735;SDS011;352;48.626;9.238;2022-09-01T11:06:31;4.60;;;4.30;;
735;SDS011;352;48.626;9.238;2022-09-01T11:09:22;4.87;;;4.47;;
735;SDS011;352;48.626;9.238;2022-09-01T11:14:46;4.10;;;3.80;;
735;SDS011;352;48.626;9.238;2022-09-01T11:17:17;4.40;;;4.10;;
735;SDS011;352;48.626;9.238;2022-09-01T11:19:46;4.77;;;4.40;;
735;SDS011;352;48.626;9.238;2022-09-01T11:22:23;5.20;;;4.80;;
735;SDS011;352;48.626;9.238;2022-09-01T11:28:03;4.33;;;4.03;;
735;SDS011;352;48.626;9.238;2022-09-01T11:30:36;4.53;;;4.23;;
735;SDS011;352;48.626;9.238;2022-09-01T11:33:18;4.70;;;4.00;;
735;SDS011;352;48.626;9.238;2022-09-01T11:35:57;5.20;;;4.67;;
735;SDS011;352;48.626;9.238;2022-09-01T11:38:25;4.30;;;4.00;;
735;SDS011;352;48.626;9.238;2022-09-01T11:40:55;3.90;;;3.60;;
735;SDS011;352;48.626;9.238;2022-09-01T11:43:23;3.93;;;3.63;;
735;SDS011;352;48.626;9.238;2022-09-01T11:45:57;3.70;;;3.40;;
735;SDS011;352;48.626;9.238;2022-09-01T11:48:31;3.87;;;3.60;;
735;SDS011;352;48.626;9.238;2022-09-01T11:50:59;4.20;;;3.80;;
735;SDS011;352;48.626;9.238;2022-09-01T11:53:27;4.30;;;3.90;;
735;SDS011;352;48.626;9.238;2022-09-01T11:56:10;3.40;;;3.10;;
735;SDS011;352;48.626;9.238;2022-09-01T11:58:38;3.87;;;3.60;;
735;SDS011;352;48.626;9.238;2022-09-01T12:01:16;4.60;;;4.07;;
735;SDS011;352;48.626;9.238;2022-09-01T12:03:45;4.13;;;3.73;;
735;SDS011;352;48.626;9.238;2022-09-01T12:06:17;3.40;;;3.20;;
735;SDS011;352;48.626;9.238;2022-09-01T12:08:50;4.93;;;4.13;;
735;SDS011;352;48.626;9.238;2022-09-01T12:11:21;4.80;;;4.17;;
735;SDS011;352;48.626;9.238;2022-09-01T12:13:54;4.10;;;3.90;;
735;SDS011;352;48.626;9.238;2022-09-01T12:16:23;4.43;;;4.13;;
735;SDS011;352;48.626;9.238;2022-09-01T12:18:50;4.07;;;3.80;;
735;SDS011;352;48.626;9.238;2022-09-01T12:21:19;4.57;;;4.27;;
735;SDS011;352;48.626;9.238;2022-09-01T12:23:48;4.80;;;4.40;;
735;SDS011;352;48.626;9.238;2022-09-01T12:26:16;5.07;;;4.70;;
735;SDS011;352;48.626;9.238;2022-09-01T12:28:46;4.77;;;4.47;;
735;SDS011;352;48.626;9.238;2022-09-01T12:31:14;5.20;;;4.80;;
735;SDS011;352;48.626;9.238;2022-09-01T12:33:43;4.90;;;4.50;;
735;SDS011;352;48.626;9.238;2022-09-01T12:36:19;4.47;;;4.17;;
735;SDS011;352;48.626;9.238;2022-09-01T12:38:47;5.03;;;4.60;;
735;SDS011;352;48.626;9.238;2022-09-01T12:41:22;4.87;;;4.57;;
735;SDS011;352;48.626;9.238;2022-09-01T12:43:51;4.73;;;4.43;;
735;SDS011;352;48.626;9.238;2022-09-01T12:49:15;6.60;;;5.50;;
735;SDS011;352;48.626;9.238;2022-09-01T12:51:43;4.40;;;4.10;;
735;SDS011;352;48.626;9.238;2022-09-01T12:54:12;4.23;;;3.83;;
735;SDS011;352;48.626;9.238;2022-09-01T12:56:39;4.80;;;4.43;;
735;SDS011;352;48.626;9.238;2022-09-01T12:59:21;4.70;;;4.40;;
735;SDS011;352;48.626;9.238;2022-09-01T13:01:49;5.43;;;5.03;;
735;SDS011;352;48.626;9.238;2022-09-01T13:04:23;4.93;;;4.53;;
735;SDS011;352;48.626;9.238;2022-09-01T13:06:52;6.57;;;4.67;;
735;SDS011;352;48.626;9.238;2022-09-01T13:09:20;4.90;;;4.60;;
735;SDS011;352;48.626;9.238;2022-09-01T13:11:47;5.33;;;4.93;;
735;SDS011;352;48.626;9.238;2022-09-01T13:14:13;5.13;;;4.73;;
735;SDS011;352;48.626;9.238;2022-09-01T13:16:42;4.80;;;4.50;;
735;SDS011;352;48.626;9.238;2022-09-01T13:19:09;5.53;;;5.00;;
735;SDS011;352;48.626;9.238;2022-09-01T13:21:35;4.60;;;4.30;;
735;SDS011;352;48.626;9.238;2022-09-01T13:24:03;4.87;;;4.30;;
735;SDS011;352;48.626;9.238;2022-09-01T13:26:31;5.20;;;4.70;;
735;SDS011;352;48.626;9.238;2022-09-01T13:28:58;4.60;;;4.30;;
735;SDS011;352;48.626;9.238;2022-09-01T13:31:25;5.57;;;5.07;;
735;SDS011;352;48.626;9.238;2022-09-01T13:33:55;4.83;;;4.53;;
735;SDS011;352;48.626;9.238;2022-09-01T13:36:22;6.57;;;4.40;;
735;SDS011;352;48.626;9.238;2022-09-01T13:38:49;4.17;;;3.90;;
735;SDS011;352;48.626;9.238;2022-09-01T13:41:16;5.00;;;4.60;;
735;SDS011;352;48.626;9.238;2022-09-01T13:43:43;5.30;;;4.90;;
735;SDS011;352;48.626;9.238;2022-09-01T13:46:11;5.00;;;4.60;;
735;SDS011;352;48.626;9.238;2022-09-01T13:48:38;4.40;;;4.10;;
735;SDS011;352;48.626;9.238;2022-09-01T13:51:06;4.30;;;4.00;;
735;SDS011;352;48.626;9.238;2022-09-01T13:53:34;5.27;;;4.87;;
735;SDS011;352;48.626;9.238;2022-09-01T13:56:00;4.77;;;4.47;;
735;SDS011;352;48.626;9.238;2022-09-01T13:58:28;5.40;;;5.10;;
735;SDS011;352;48.626;9.238;2022-09-01T14:00:56;5.33;;;4.63;;
735;SDS011;352;48.626;9.238;2022-09-01T14:03:24;4.53;;;4.23;;
735;SDS011;352;48.626;9.238;2022-09-01T14:05:50;4.97;;;4.57;;
735;SDS011;352;48.626;9.238;2022-09-01T14:08:19;4.90;;;4.50;;
735;SDS011;352;48.626;9.238;2022-09-01T14:10:47;5.80;;;5.10;;
735;SDS011;352;48.626;9.238;2022-09-01T14:13:16;4.93;;;4.63;;
735;SDS011;352;48.626;9.238;2022-09-01T14:15:43;4.83;;;4.50;;
735;SDS011;352;48.626;9.238;2022-09-01T14:18:11;5.67;;;5.27;;
735;SDS011;352;48.626;9.238;2022-09-01T14:20:39;4.90;;;4.60;;
735;SDS011;352;48.626;9.238;2022-09-01T14:23:09;5.30;;;4.90;;
735;SDS011;352;48.626;9.238;2022-09-01T14:25:42;4.73;;;4.43;;
735;SDS011;352;48.626;9.238;2022-09-01T14:28:10;4.90;;;4.50;;
735;SDS011;352;48.626;9.238;2022-09-01T14:30:38;4.40;;;4.10;;
735;SDS011;352;48.626;9.238;2022-09-01T14:33:07;5.07;;;4.77;;
735;SDS011;352;48.626;9.238;2022-09-01T14:35:36;3.90;;;3.70;;
735;SDS011;352;48.626;9.238;2022-09-01T14:38:03;4.73;;;4.43;;
735;SDS011;352;48.626;9.238;2022-09-01T14:40:31;4.37;;;4.07;;
735;SDS011;352;48.626;9.238;2022-09-01T14:43:02;4.50;;;4.10;;
735;SDS011;352;48.626;9.238;2022-09-01T14:45:30;4.50;;;4.20;;
735;SDS011;352;48.626;9.238;2022-09-01T14:47:58;4.70;;;4.40;;
735;SDS011;352;48.626;9.238;2022-09-01T14:50:26;4.70;;;4.37;;
735;SDS011;352;48.626;9.238;2022-09-01T14:52:56;5.27;;;4.30;;
735;SDS011;352;48.626;9.238;2022-09-01T14:55:25;4.43;;;4.13;;
735;SDS011;352;48.626;9.238;2022-09-01T14:57:53;4.27;;;3.97;;
735;SDS011;352;48.626;9.238;2022-09-01T15:00:23;4.17;;;3.90;;
735;SDS011;352;48.626;9.238;2022-09-01T15:02:50;3.53;;;3.33;;
735;SDS011;352;48.626;9.238;2022-09-01T15:05:17;4.03;;;3.70;;
735;SDS011;352;48.626;9.238;2022-09-01T15:07:45;4.43;;;4.13;;
735;SDS011;352;48.626;9.238;2022-09-01T15:10:13;4.60;;;4.30;;
735;SDS011;352;48.626;9.238;2022-09-01T15:12:43;4.00;;;3.80;;
735;SDS011;352;48.626;9.238;2022-09-01T15:15:09;4.50;;;4.20;;
735;SDS011;352;48.626;9.238;2022-09-01T15:17:37;4.50;;;4.20;;
735;SDS011;352;48.626;9.238;2022-09-01T15:20:05;4.33;;;3.83;;
735;SDS011;352;48.626;9.238;2022-09-01T15:22:49;4.83;;;4.43;;
735;SDS011;352;48.626;9.238;2022-09-01T15:25:16;4.30;;;4.10;;
735;SDS011;352;48.626;9.238;2022-09-01T15:27:43;4.20;;;4.00;;
735;SDS011;352;48.626;9.238;2022-09-01T15:30:11;4.20;;;3.97;;
735;SDS011;352;48.626;9.238;2022-09-01T15:32:42;4.20;;;3.90;;
735;SDS011;352;48.626;9.238;2022-09-01T15:35:10;4.50;;;4.10;;
735;SDS011;352;48.626;9.238;2022-09-01T15:37:38;5.10;;;4.70;;
735;SDS011;352;48.626;9.238;2022-09-01T15:40:05;5.40;;;4.10;;
735;SDS011;352;48.626;9.238;2022-09-01T15:42:34;4.23;;;3.93;;
735;SDS011;352;48.626;9.238;2022-09-01T15:45:02;4.27;;;3.97;;
735;SDS011;352;48.626;9.238;2022-09-01T15:47:31;4.57;;;4.27;;
735;SDS011;352;48.626;9.238;2022-09-01T15:50:00;4.40;;;4.10;;
735;SDS011;352;48.626;9.238;2022-09-01T15:52:28;4.83;;;4.53;;
735;SDS011;352;48.626;9.238;2022-09-01T15:54:55;4.67;;;4.30;;
735;SDS011;352;48.626;9.238;2022-09-01T15:57:22;4.40;;;4.10;;
735;SDS011;352;48.626;9.238;2022-09-01T15:59:48;5.10;;;4.67;;
735;SDS011;352;48.626;9.238;2022-09-01T16:02:15;4.50;;;4.20;;
735;SDS011;352;48.626;9.238;2022-09-01T16:04:45;4.63;;;4.33;;
735;SDS011;352;48.626;9.238;2022-09-01T16:07:13;4.67;;;4.27;;
735;SDS011;352;48.626;9.238;2022-09-01T16:09:40;4.70;;;4.40;;
735;SDS011;352;48.626;9.238;2022-09-01T16:12:06;4.60;;;4.10;;
735;SDS011;352;48.626;9.238;2022-09-01T16:14:33;5.97;;;4.23;;
735;SDS011;352;48.626;9.238;2022-09-01T16:17:01;4.83;;;4.53;;
735;SDS011;352;48.626;9.238;2022-09-01T16:19:36;5.00;;;4.60;;
735;SDS011;352;48.626;9.238;2022-09-01T16:22:15;5.23;;;4.77;;